Time;durP1;ratioP1;P1;durP2;ratioP2;P2;SDS_P1;SDS_P2;PMS_P1;PMS_P2;Temp;Humidity;BMP_temperature;BMP_pressure;BME280_temperature;BME280_humidity;BME280_pressure;Samples;Min_cycle;Max_cycle;Signal;HPM_P1;HPM_P2
2022/03/11 00:00:51;;;;;;;13.55;8.27;;;;;;;5.69;51.11;101590.56;2107622;28;20046;-60
2022/03/11 00:01:52;;;;;;;11.97;6.13;;;;;;;5.64;50.78;101591.47;2106978;28;20077;-60
2022/03/11 00:02:52;;;;;;;15.47;7.53;;;;;;;5.59;52.12;101588.09;2106848;28;20030;-61
2022/03/11 00:03:52;;;;;;;12.23;7.33;;;;;;;5.56;50.78;101590.69;2107478;28;20052;-61
2022/03/11 00:04:52;;;;;;;11.07;6.90;;;;;;;5.65;51.43;101585.41;2107545;28;20020;-62
2022/03/11 00:05:53;;;;;;;12.97;7.17;;;;;;;5.60;51.52;101594.97;2107597;28;20052;-59
2022/03/11 00:06:53;;;;;;;12.23;7.07;;;;;;;5.51;52.12;101584.72;2107553;28;20087;-60
2022/03/11 00:07:53;;;;;;;12.07;7.10;;;;;;;5.47;51.43;101591.63;2107441;28;20042;-60
2022/03/11 00:08:54;;;;;;;13.33;8.57;;;;;;;5.49;52.07;101587.31;2107527;28;20024;-61
2022/03/11 00:09:55;;;;;;;13.70;7.28;;;;;;;5.36;52.55;101586.56;2107460;28;20400;-60
2022/03/11 00:10:55;;;;;;;11.93;7.27;;;;;;;5.29;52.21;101582.31;2107482;28;20063;-61
2022/03/11 00:11:55;;;;;;;13.03;7.80;;;;;;;5.33;51.61;101573.63;2107434;28;20032;-60
2022/03/11 00:12:56;;;;;;;12.63;8.13;;;;;;;5.39;52.87;101578.78;2107459;28;20063;-61
2022/03/11 00:13:56;;;;;;;10.18;7.15;;;;;;;5.24;54.02;101579.75;2107489;28;20036;-60
2022/03/11 00:14:57;;;;;;;12.68;7.65;;;;;;;5.15;51.91;101580.69;2107453;28;20420;-60
2022/03/11 00:15:57;;;;;;;14.00;7.63;;;;;;;5.18;52.67;101584.13;2107385;28;20024;-60
2022/03/11 00:16:58;;;;;;;11.95;7.18;;;;;;;5.17;53.23;101578.09;2106783;28;20070;-60
2022/03/11 00:17:58;;;;;;;10.23;6.67;;;;;;;5.10;54.05;101579.84;2106860;28;20103;-62
2022/03/11 00:18:58;;;;;;;11.00;6.93;;;;;;;4.95;54.41;101567.91;2107357;28;20097;-62
2022/03/11 00:19:58;;;;;;;13.80;7.33;;;;;;;4.94;53.89;101576.53;2107436;28;20388;-61
2022/03/11 00:20:59;;;;;;;14.07;8.37;;;;;;;5.01;54.25;101583.38;2107414;28;20483;-61
2022/03/11 00:21:59;;;;;;;10.53;7.13;;;;;;;4.96;54.66;101579.13;2107394;28;20362;-60
2022/03/11 00:23:00;;;;;;;11.27;7.47;;;;;;;4.92;54.58;101578.25;2107422;28;20048;-61
2022/03/11 00:24:00;;;;;;;10.40;8.43;;;;;;;4.83;55.06;101580.91;2107381;28;20031;-60
2022/03/11 00:25:01;;;;;;;11.20;6.23;;;;;;;4.69;54.95;101573.25;2107376;28;20378;-61
2022/03/11 00:26:01;;;;;;;13.48;7.60;;;;;;;4.59;55.85;101575.88;2107316;28;20419;-61
2022/03/11 00:27:02;;;;;;;13.33;7.60;;;;;;;4.54;55.19;101577.63;2107327;28;20485;-60
2022/03/11 00:28:02;;;;;;;13.57;8.20;;;;;;;4.69;54.79;101570.66;2106536;28;20520;-61
2022/03/11 00:29:02;;;;;;;12.98;8.63;;;;;;;4.70;55.23;101572.38;2106784;28;20024;-61
2022/03/11 00:30:04;;;;;;;12.83;7.60;;;;;;;4.71;54.21;101567.19;2107315;28;20097;-60
2022/03/11 00:31:07;;;;;;;11.63;7.57;;;;;;;4.78;54.61;101577.50;2107398;28;20020;-60
2022/03/11 00:32:08;;;;;;;14.38;7.28;;;;;;;4.71;54.58;101574.09;2107318;28;20024;-61
2022/03/11 00:33:08;;;;;;;12.98;7.82;;;;;;;4.66;56.26;101574.13;2107310;28;20020;-60
2022/03/11 00:34:09;;;;;;;10.97;7.83;;;;;;;4.59;55.14;101573.28;2107363;28;20416;-61
2022/03/11 00:35:11;;;;;;;13.37;7.90;;;;;;;4.56;56.52;101569.88;2107242;28;20047;-61
2022/03/11 00:36:11;;;;;;;15.07;8.27;;;;;;;4.42;56.38;101567.34;2107307;28;20020;-62
2022/03/11 00:37:11;;;;;;;11.20;7.37;;;;;;;4.31;56.98;101570.84;2107297;28;20028;-62
2022/03/11 00:38:12;;;;;;;14.00;8.20;;;;;;;4.19;57.20;101576.06;2107246;28;20043;-61
2022/03/11 00:39:12;;;;;;;13.83;7.47;;;;;;;4.15;57.41;101579.53;2107260;28;20047;-60
2022/03/11 00:40:13;;;;;;;12.97;8.10;;;;;;;4.12;57.15;101570.94;2107104;28;20310;-61
2022/03/11 00:41:13;;;;;;;12.73;7.43;;;;;;;4.18;56.91;101579.53;2107217;28;20433;-61
2022/03/11 00:42:13;;;;;;;11.73;7.90;;;;;;;4.22;57.02;101570.88;2107130;28;20017;-60
2022/03/11 00:43:14;;;;;;;13.30;8.07;;;;;;;4.25;57.13;101565.72;2107232;28;20028;-61
2022/03/11 00:44:14;;;;;;;13.13;8.90;;;;;;;4.25;57.07;101565.72;2107224;28;20481;-61
2022/03/11 00:45:14;;;;;;;14.27;8.50;;;;;;;4.15;57.77;101564.91;2106513;28;20023;-61
2022/03/11 00:46:14;;;;;;;17.47;9.30;;;;;;;4.11;57.20;101564.03;2106573;28;20031;-60
2022/03/11 00:47:15;;;;;;;13.80;7.90;;;;;;;4.21;57.73;101566.59;2107188;28;20028;-61
2022/03/11 00:48:15;;;;;;;13.80;7.70;;;;;;;4.18;57.91;101559.69;2107301;28;20032;-62
2022/03/11 00:49:15;;;;;;;10.83;7.27;;;;;;;4.10;57.70;101564.91;2107007;28;20059;-62
2022/03/11 00:50:16;;;;;;;12.43;7.70;;;;;;;4.01;58.26;101564.94;2107212;28;20052;-60
2022/03/11 00:51:16;;;;;;;12.80;7.87;;;;;;;4.00;57.33;101560.63;2107147;28;20031;-61
2022/03/11 00:52:16;;;;;;;11.63;7.50;;;;;;;4.01;58.85;101561.50;2107114;28;20023;-61
2022/03/11 00:53:16;;;;;;;13.30;7.63;;;;;;;3.95;58.15;101563.25;2107092;28;20066;-61
2022/03/11 00:54:17;;;;;;;15.07;8.73;;;;;;;3.99;57.50;101553.75;2107135;28;20028;-61
2022/03/11 00:55:17;;;;;;;11.97;8.30;;;;;;;4.08;57.57;101558.88;2107047;28;20103;-61
2022/03/11 00:56:17;;;;;;;13.93;9.13;;;;;;;4.12;57.53;101555.44;2107119;28;20473;-62
2022/03/11 00:57:17;;;;;;;14.07;8.43;;;;;;;4.28;57.27;101554.50;2105948;28;20415;-61
2022/03/11 00:58:18;;;;;;;10.13;7.33;;;;;;;4.25;56.82;101548.47;2107002;28;20058;-60
2022/03/11 00:59:18;;;;;;;13.97;7.47;;;;;;;4.17;57.43;101549.38;2107115;28;20077;-61
2022/03/11 01:00:18;;;;;;;14.57;7.93;;;;;;;4.14;57.90;101549.41;2107152;28;20028;-60
2022/03/11 01:01:19;;;;;;;12.47;7.40;;;;;;;4.05;58.06;101552.88;2107209;28;20016;-61
2022/03/11 01:02:19;;;;;;;14.03;8.10;;;;;;;4.00;58.24;101550.28;2107096;28;20028;-61
2022/03/11 01:03:19;;;;;;;16.90;9.57;;;;;;;3.93;58.61;101548.63;2107051;28;20020;-61
2022/03/11 01:04:19;;;;;;;13.20;8.13;;;;;;;3.89;58.98;101549.47;2106952;28;20028;-59
2022/03/11 01:05:22;;;;;;;15.20;7.93;;;;;;;3.83;58.86;101547.78;2107057;28;20476;-61
2022/03/11 01:06:22;;;;;;;11.50;6.90;;;;;;;3.80;59.21;101548.63;2107054;28;20035;-60
2022/03/11 01:07:23;;;;;;;14.52;8.55;;;;;;;3.86;57.84;101543.47;2106339;28;20578;-61
2022/03/11 01:08:23;;;;;;;12.57;7.97;;;;;;;4.06;57.84;101539.06;2106394;28;20024;-61
2022/03/11 01:09:23;;;;;;;13.83;8.97;;;;;;;4.16;57.70;101538.19;2106197;28;20024;-60
2022/03/11 01:10:25;;;;;;;12.00;7.93;;;;;;;4.14;57.79;101536.47;2106396;28;20024;-61
2022/03/11 01:11:25;;;;;;;;;;;;;;;4.08;58.04;101539.94;2107442;28;20032;-60
2022/03/11 01:12:25;;;;;;;12.27;8.02;;;;;;;4.02;57.28;101527.91;2106978;28;19908;-60
2022/03/11 01:13:26;;;;;;;12.55;9.25;;;;;;;4.19;57.28;101532.13;2106216;28;20397;-60
2022/03/11 01:14:26;;;;;;;12.37;7.17;;;;;;;4.16;57.42;101527.84;2106449;28;20133;-60
2022/03/11 01:15:26;;;;;;;14.00;8.23;;;;;;;4.10;56.68;101533.91;2106951;28;20024;-60
2022/03/11 01:16:27;;;;;;;14.60;8.40;;;;;;;4.34;55.58;101532.06;2106232;28;20056;-60
2022/03/11 01:17:27;;;;;;;11.35;7.60;;;;;;;4.42;56.52;101528.59;2097938;28;20021;-60
2022/03/11 01:18:28;;;;;;;12.60;8.67;;;;;;;4.41;55.58;101534.63;2106430;28;20039;-60
2022/03/11 01:19:28;;;;;;;13.10;7.43;;;;;;;4.39;56.04;101526.88;2106932;28;20408;-61
2022/03/11 01:20:28;;;;;;;14.13;8.83;;;;;;;4.38;56.26;101526.00;2106977;28;20063;-60
2022/03/11 01:21:29;;;;;;;14.47;7.70;;;;;;;4.32;56.48;101531.22;2106998;28;20028;-61
2022/03/11 01:22:30;;;;;;;14.83;7.90;;;;;;;4.32;56.84;101527.78;2106931;28;20026;-62
2022/03/11 01:23:30;;;;;;;17.42;8.48;;;;;;;4.34;56.27;101526.91;2107004;28;20028;-61
2022/03/11 01:24:30;;;;;;;11.77;8.00;;;;;;;4.37;55.74;101523.44;2106494;28;20039;-61
2022/03/11 01:25:30;;;;;;;12.40;7.67;;;;;;;4.56;55.05;101526.78;2106345;28;20411;-60
2022/03/11 01:26:31;;;;;;;11.97;7.23;;;;;;;4.60;55.68;101525.91;2106982;28;20035;-61
2022/03/11 01:27:31;;;;;;;11.80;7.87;;;;;;;4.51;55.42;101525.94;2106935;28;20392;-60
2022/03/11 01:28:31;;;;;;;12.20;7.63;;;;;;;4.43;56.18;101517.38;2106951;28;20093;-62
2022/03/11 01:29:32;;;;;;;12.97;7.90;;;;;;;4.38;56.21;101520.00;2107024;28;20024;-60
2022/03/11 01:30:32;;;;;;;13.50;7.80;;;;;;;4.33;55.85;101519.16;2107015;28;20024;-61
2022/03/11 01:31:32;;;;;;;10.53;7.53;;;;;;;4.46;55.35;101517.38;2106255;28;20031;-60
2022/03/11 01:32:32;;;;;;;18.30;8.87;;;;;;;4.51;55.71;101515.59;2106374;28;20043;-60
2022/03/11 01:33:33;;;;;;;14.70;7.87;;;;;;;4.46;56.20;101518.22;2106973;28;20024;-61
2022/03/11 01:34:33;;;;;;;15.60;8.20;;;;;;;4.42;56.01;101510.50;2106959;28;20365;-60
2022/03/11 01:35:34;;;;;;;16.03;8.43;;;;;;;4.44;55.95;101513.91;2106860;28;20028;-60
2022/03/11 01:36:34;;;;;;;15.82;8.65;;;;;;;4.44;55.98;101514.78;2106996;28;20020;-61
2022/03/11 01:37:34;;;;;;;15.13;8.17;;;;;;;4.43;55.57;101512.22;2106969;28;20436;-60
2022/03/11 01:38:35;;;;;;;12.20;7.77;;;;;;;4.35;56.50;101504.50;2106899;28;20381;-61
2022/03/11 01:39:35;;;;;;;16.48;8.55;;;;;;;4.23;57.01;101508.00;2106940;28;20024;-61
2022/03/11 01:40:36;;;;;;;12.40;7.13;;;;;;;4.09;57.08;101503.78;2106840;28;20016;-61
2022/03/11 01:41:36;;;;;;;13.13;9.27;;;;;;;4.15;56.84;101504.59;2106877;28;20012;-60
2022/03/11 01:42:37;;;;;;;14.02;8.07;;;;;;;4.32;56.01;101500.22;2106908;28;20023;-61
2022/03/11 01:43:57;;;;;;;12.23;8.27;;;;;;;4.47;55.61;101499.25;2106856;28;20492;-60
2022/03/11 01:44:57;;;;;;;16.52;8.02;;;;;;;4.41;56.34;101496.69;2106832;28;20062;-60
2022/03/11 01:45:59;;;;;;;13.77;8.70;;;;;;;4.41;55.98;101503.63;2106083;28;20408;-61
2022/03/11 01:47:00;;;;;;;13.50;7.88;;;;;;;4.34;56.37;101493.31;2106216;28;20027;-61
2022/03/11 01:48:00;;;;;;;11.73;7.30;;;;;;;4.29;56.70;101495.06;2106854;28;20058;-59
2022/03/11 01:49:02;;;;;;;11.80;7.80;;;;;;;4.29;56.08;101495.06;2106790;28;20044;-60
2022/03/11 01:50:03;;;;;;;11.93;7.97;;;;;;;4.38;55.09;101483.81;2105975;28;20030;-61
2022/03/11 01:51:03;;;;;;;11.23;7.75;;;;;;;4.41;55.98;101493.28;2106143;28;20030;-61
2022/03/11 01:52:04;;;;;;;13.20;9.37;;;;;;;4.44;55.81;101477.72;2106761;28;20024;-60
2022/03/11 01:53:04;;;;;;;12.40;7.80;;;;;;;4.38;55.67;101489.00;2106646;28;20036;-60
2022/03/11 01:54:04;;;;;;;14.33;9.30;;;;;;;4.40;54.99;101483.78;2106720;28;20032;-59
2022/03/11 01:55:05;;;;;;;11.20;7.80;;;;;;;4.41;55.89;101482.94;2106010;28;20020;-59
2022/03/11 01:56:05;;;;;;;10.77;7.90;;;;;;;4.37;55.72;101477.78;2106161;28;20115;-61
2022/03/11 01:57:06;;;;;;;12.57;7.40;;;;;;;4.32;55.77;101474.38;2106789;28;20016;-61
2022/03/11 01:58:07;;;;;;;14.00;8.07;;;;;;;4.28;55.94;101475.28;2106818;28;20028;-61
2022/03/11 01:59:11;;;;;;;13.13;8.05;;;;;;;4.21;55.55;101471.00;2106774;28;20020;-61
2022/03/11 02:00:12;;;;;;;13.77;7.53;;;;;;;4.19;56.07;101468.41;2106723;28;20024;-62
2022/03/11 02:01:12;;;;;;;12.07;6.85;;;;;;;4.11;56.93;101473.63;2106762;28;20031;-60
2022/03/11 02:02:12;;;;;;;12.63;7.40;;;;;;;4.02;56.89;101465.06;2106619;28;20052;-60
2022/03/11 02:03:12;;;;;;;12.70;7.40;;;;;;;3.98;56.86;101466.81;2106720;28;20034;-60
2022/03/11 02:04:13;;;;;;;13.17;8.37;;;;;;;3.98;57.02;101467.63;2106677;28;20028;-61
2022/03/11 02:05:17;;;;;;;10.60;7.30;;;;;;;4.01;56.82;101464.22;2106604;28;20089;-61
2022/03/11 02:06:19;;;;;;;13.13;8.20;;;;;;;4.03;56.09;101459.88;2106674;28;20497;-60
2022/03/11 02:07:20;;;;;;;10.95;8.05;;;;;;;4.18;55.81;101464.09;2105959;28;20155;-60
2022/03/11 02:08:21;;;;;;;16.10;8.43;;;;;;;4.23;56.06;101458.91;2105681;28;20618;-61
2022/03/11 02:09:21;;;;;;;12.27;7.93;;;;;;;4.23;55.40;101470.13;2106722;28;20129;-61
2022/03/11 02:10:21;;;;;;;14.57;9.23;;;;;;;4.23;55.82;101458.91;2105994;28;20066;-60
2022/03/11 02:11:21;;;;;;;12.97;7.77;;;;;;;4.15;56.46;101460.69;2106107;28;20024;-60
2022/03/11 02:12:36;;;;;;;12.20;7.23;;;;;;;4.10;56.54;101453.81;2106680;28;20487;-60
2022/03/11 02:13:47;;;;;;;13.45;7.97;;;;;;;4.05;56.15;101450.41;2106709;28;20023;-60
2022/03/11 02:14:47;;;;;;;13.50;8.15;;;;;;;4.02;56.23;101455.59;2105909;28;20093;-60
2022/03/11 02:15:48;;;;;;;10.17;7.57;;;;;;;4.15;55.69;101451.22;2106102;28;20024;-61
2022/03/11 02:16:48;;;;;;;12.80;7.40;;;;;;;4.17;55.12;101452.06;2106643;28;20070;-60
2022/03/11 02:17:49;;;;;;;13.30;8.30;;;;;;;4.20;56.08;101443.41;2106598;28;20700;-61
2022/03/11 02:18:49;;;;;;;12.47;8.00;;;;;;;4.12;57.06;101444.34;2106645;28;20038;-61
2022/03/11 02:19:50;;;;;;;14.32;8.02;;;;;;;4.05;56.34;101437.50;2106633;28;20103;-61
2022/03/11 02:20:50;;;;;;;12.50;7.87;;;;;;;4.03;56.87;101440.97;2106677;28;20043;-60
2022/03/11 02:21:52;;;;;;;13.73;8.90;;;;;;;3.96;57.09;101445.28;2106631;28;20016;-60
2022/03/11 02:22:53;;;;;;;11.23;7.57;;;;;;;3.98;56.12;101435.81;2106573;28;20027;-60
2022/03/11 02:23:55;;;;;;;14.95;8.10;;;;;;;4.05;56.62;101434.91;2106601;28;20020;-59
2022/03/11 02:24:55;;;;;;;10.98;7.05;;;;;;;3.96;57.06;101445.28;2106567;28;20024;-60
2022/03/11 02:25:56;;;;;;;11.60;7.50;;;;;;;3.93;56.09;101437.56;2105965;28;20074;-60
2022/03/11 02:26:56;;;;;;;14.07;7.17;;;;;;;4.01;56.38;101443.56;2105960;28;20115;-60
2022/03/11 02:27:57;;;;;;;12.30;8.30;;;;;;;4.01;56.12;101438.38;2106615;28;20020;-59
2022/03/11 02:28:59;;;;;;;13.20;8.27;;;;;;;3.99;56.13;101433.22;2106593;28;20020;-60
2022/03/11 02:29:59;;;;;;;15.02;8.57;;;;;;;3.99;56.62;101434.94;2106507;28;20098;-61
2022/03/11 02:31:01;;;;;;;14.70;8.43;;;;;;;3.99;56.16;101424.59;2106568;28;20158;-60
2022/03/11 02:32:01;;;;;;;;;;;;;;;4.13;55.46;101432.28;2106950;28;20454;-60
2022/03/11 02:33:01;;;;;;;12.88;8.18;;;;;;;4.24;55.33;101432.19;2106564;28;19923;-61
2022/03/11 02:34:03;;;;;;;12.90;7.60;;;;;;;4.33;54.64;101423.53;2106539;28;20111;-59
2022/03/11 02:35:04;;;;;;;13.45;8.10;;;;;;;4.41;54.29;101426.09;2106437;28;20051;-62
2022/03/11 02:36:05;;;;;;;13.40;7.63;;;;;;;4.54;53.40;101419.94;2106542;28;20039;-61
2022/03/11 02:37:06;;;;;;;13.35;8.70;;;;;;;4.54;53.65;101427.69;2105863;28;20024;-60
2022/03/11 02:38:06;;;;;;;12.23;7.78;;;;;;;4.53;54.44;101423.41;2105825;28;20073;-61
2022/03/11 02:39:07;;;;;;;13.27;8.13;;;;;;;4.47;53.88;101418.25;2106574;28;20443;-60
2022/03/11 02:40:08;;;;;;;12.63;8.20;;;;;;;4.46;54.59;101424.31;2106490;28;20401;-61
2022/03/11 02:41:09;;;;;;;11.27;7.60;;;;;;;4.40;54.10;101420.03;2106586;28;20032;-61
2022/03/11 02:42:10;;;;;;;17.90;9.77;;;;;;;4.55;54.17;101420.81;2105768;28;20059;-61
2022/03/11 02:43:10;;;;;;;;;;;;;;;4.56;53.37;101415.63;2106295;28;20416;-61
2022/03/11 02:44:11;;;;;;;13.65;8.25;;;;;;;4.64;53.80;101419.00;2105955;28;19995;-61
2022/03/11 02:45:11;;;;;;;15.93;8.93;;;;;;;4.66;52.89;101412.94;2106531;28;20048;-60
2022/03/11 02:46:13;;;;;;;16.23;8.43;;;;;;;4.67;53.58;101418.13;2106489;28;20032;-60
2022/03/11 02:47:14;;;;;;;17.52;8.95;;;;;;;4.66;53.38;101415.53;2106544;28;20043;-60
2022/03/11 02:48:14;;;;;;;12.75;8.18;;;;;;;4.59;53.32;101419.91;2106566;28;20107;-60
2022/03/11 02:49:15;;;;;;;13.27;9.30;;;;;;;4.66;53.21;101420.72;2106471;28;20107;-60
2022/03/11 02:50:15;;;;;;;16.20;9.03;;;;;;;4.70;53.15;101422.41;2105859;28;20020;-60
2022/03/11 02:51:15;;;;;;;12.60;8.63;;;;;;;4.71;53.03;101418.94;2097465;28;20497;-62
2022/03/11 02:52:16;;;;;;;11.97;8.10;;;;;;;4.76;53.26;101414.59;2097451;28;20135;-60
2022/03/11 02:53:16;;;;;;;13.43;7.80;;;;;;;4.80;53.38;101410.25;2105919;28;20028;-60
2022/03/11 02:54:17;;;;;;;12.57;8.27;;;;;;;4.78;52.77;101410.25;2106465;28;20016;-60
2022/03/11 02:55:17;;;;;;;12.03;8.13;;;;;;;4.77;53.16;101418.91;2106459;28;20016;-61
2022/03/11 02:56:18;;;;;;;12.77;7.97;;;;;;;4.69;52.90;101415.53;2106538;28;20039;-61
2022/03/11 02:57:18;;;;;;;12.27;7.82;;;;;;;4.58;53.35;101413.88;2106621;28;20024;-60
2022/03/11 02:58:19;;;;;;;13.47;9.00;;;;;;;4.55;53.70;101413.88;2106671;28;20423;-60
2022/03/11 02:59:20;;;;;;;12.40;7.47;;;;;;;4.67;53.28;101409.50;2106519;28;20034;-61
2022/03/11 03:00:20;;;;;;;12.40;7.93;;;;;;;4.71;52.78;101404.28;2105747;28;20015;-60
2022/03/11 03:01:20;;;;;;;12.47;8.07;;;;;;;4.67;52.43;101407.78;2105926;28;20386;-60
2022/03/11 03:02:20;;;;;;;19.67;9.13;;;;;;;4.70;53.24;101404.28;2106415;28;20153;-60
2022/03/11 03:03:21;;;;;;;13.80;8.37;;;;;;;4.66;52.88;101400.03;2106505;28;20058;-62
2022/03/11 03:04:21;;;;;;;13.13;7.70;;;;;;;4.77;52.36;101403.38;2106466;28;20024;-62
2022/03/11 03:05:21;;;;;;;12.13;8.33;;;;;;;4.76;52.89;101402.50;2106470;28;20027;-61
2022/03/11 03:06:21;;;;;;;11.27;7.63;;;;;;;4.71;52.96;101403.41;2106508;28;20028;-60
2022/03/11 03:07:22;;;;;;;10.70;8.10;;;;;;;4.60;52.97;101406.97;2106379;28;20089;-60
2022/03/11 03:08:22;;;;;;;14.33;8.07;;;;;;;4.56;53.42;101407.00;2106551;28;20024;-60
2022/03/11 03:09:22;;;;;;;11.17;7.43;;;;;;;4.51;53.67;101401.84;2106487;28;20500;-60
2022/03/11 03:10:23;;;;;;;13.20;8.00;;;;;;;4.41;53.95;101408.00;2106437;28;20020;-61
2022/03/11 03:11:23;;;;;;;12.43;8.00;;;;;;;4.41;53.69;101400.25;2106554;28;20417;-61
2022/03/11 03:12:25;;;;;;;13.20;7.80;;;;;;;4.43;53.48;101403.66;2106378;28;20081;-61
2022/03/11 03:13:25;;;;;;;13.15;9.75;;;;;;;4.50;52.71;101407.91;2106417;28;20028;-60
2022/03/11 03:14:25;;;;;;;12.73;8.17;;;;;;;4.58;53.15;101403.53;2106448;28;20022;-62
2022/03/11 03:15:25;;;;;;;11.30;7.97;;;;;;;4.62;52.82;101404.38;2106398;28;20530;-63
2022/03/11 03:16:26;;;;;;;13.30;7.87;;;;;;;4.60;52.78;101406.09;2106403;28;20020;-60
2022/03/11 03:17:26;;;;;;;12.70;7.53;;;;;;;4.56;52.70;101400.13;2105745;28;20016;-60
2022/03/11 03:18:27;;;;;;;17.90;10.90;;;;;;;4.69;51.89;101405.19;2105744;28;20477;-62
2022/03/11 03:19:27;;;;;;;12.67;7.73;;;;;;;4.70;52.56;101401.72;2106474;28;20404;-61
2022/03/11 03:20:27;;;;;;;12.10;8.40;;;;;;;4.67;52.80;101407.78;2105985;28;20024;-60
2022/03/11 03:21:27;;;;;;;10.17;6.70;;;;;;;4.54;53.43;101401.84;2107348;28;20031;-61
2022/03/11 03:22:27;;;;;;;12.87;8.43;;;;;;;4.49;52.72;101403.63;2108049;28;20047;-61
2022/03/11 03:23:28;;;;;;;13.67;8.53;;;;;;;4.59;52.33;101407.81;2107905;28;20556;-61
2022/03/11 03:24:28;;;;;;;12.50;8.17;;;;;;;4.59;52.84;101400.06;2107850;28;20020;-60
2022/03/11 03:25:28;;;;;;;10.63;7.60;;;;;;;4.60;52.64;101400.94;2107901;28;20020;-60
2022/03/11 03:26:29;;;;;;;15.97;8.60;;;;;;;4.58;53.00;101400.94;2107811;28;20024;-60
2022/03/11 03:27:29;;;;;;;10.60;7.13;;;;;;;4.50;53.59;101405.31;2107826;28;20047;-61
2022/03/11 03:28:29;;;;;;;10.57;7.20;;;;;;;4.41;53.48;101400.25;2107909;28;20060;-61
2022/03/11 03:29:29;;;;;;;11.67;7.53;;;;;;;4.40;53.43;101398.50;2107833;28;20055;-60
2022/03/11 03:30:30;;;;;;;13.07;8.17;;;;;;;4.43;52.93;101403.66;2107093;28;20066;-61
2022/03/11 03:31:30;;;;;;;13.47;8.10;;;;;;;4.54;52.35;101400.97;2107272;28;20012;-61
2022/03/11 03:32:31;;;;;;;16.23;8.30;;;;;;;4.57;52.76;101400.94;2107867;28;20134;-61
2022/03/11 03:33:31;;;;;;;15.02;7.60;;;;;;;4.53;53.06;101394.97;2107875;28;20046;-61
2022/03/11 03:34:34;;;;;;;12.93;7.27;;;;;;;4.48;52.88;101397.56;2107935;28;20103;-62
2022/03/11 03:35:34;;;;;;;12.23;8.10;;;;;;;4.47;53.06;101395.88;2107020;28;20060;-60
2022/03/11 03:36:34;;;;;;;13.03;7.80;;;;;;;4.47;52.92;101395.00;2107325;28;20020;-60
2022/03/11 03:37:35;;;;;;;11.43;7.70;;;;;;;4.41;52.99;101392.47;2107830;28;20019;-60
2022/03/11 03:38:35;;;;;;;13.50;7.67;;;;;;;4.34;53.90;101395.09;2107871;28;20051;-60
2022/03/11 03:39:37;;;;;;;11.73;6.47;;;;;;;4.31;53.42;101402.88;2107848;28;20024;-61
2022/03/11 03:40:38;;;;;;;11.70;7.50;;;;;;;4.29;53.11;101391.69;2107711;28;20043;-60
2022/03/11 03:41:38;;;;;;;11.87;7.37;;;;;;;4.29;53.47;101391.69;2107843;28;20066;-61
2022/03/11 03:42:38;;;;;;;21.97;8.13;;;;;;;4.32;52.79;101386.53;2107694;28;20046;-60
2022/03/11 03:43:39;;;;;;;14.53;8.30;;;;;;;4.52;52.46;101395.84;2107693;28;20103;-61
2022/03/11 03:44:39;;;;;;;12.97;7.60;;;;;;;4.53;52.70;101394.97;2107762;28;20443;-60
2022/03/11 03:45:40;;;;;;;10.77;7.50;;;;;;;4.45;52.87;101391.59;2107773;28;20028;-61
2022/03/11 03:46:40;;;;;;;13.40;6.93;;;;;;;4.35;53.46;101396.81;2107730;28;20048;-62
2022/03/11 03:47:41;;;;;;;13.17;8.20;;;;;;;4.32;53.19;101393.41;2107693;28;20031;-61
2022/03/11 03:48:41;;;;;;;11.63;7.97;;;;;;;4.41;52.33;101389.91;2107570;28;20101;-60
2022/03/11 03:49:41;;;;;;;12.63;7.95;;;;;;;4.40;53.49;101391.63;2107669;28;20281;-61
2022/03/11 03:50:42;;;;;;;11.80;8.37;;;;;;;4.32;53.49;101394.28;2107681;28;20496;-60
2022/03/11 03:51:42;;;;;;;12.50;8.43;;;;;;;4.34;53.05;101392.53;2107645;28;20089;-60
2022/03/11 03:52:42;;;;;;;10.50;6.83;;;;;;;4.33;53.34;101390.81;2107726;28;20035;-61
2022/03/11 03:53:43;;;;;;;12.90;8.17;;;;;;;4.27;54.35;101392.59;2107730;28;20031;-60
2022/03/11 03:54:44;;;;;;;9.90;6.40;;;;;;;4.08;55.00;101388.38;2107622;28;20383;-61
2022/03/11 03:55:44;;;;;;;;;;;;;;;4.03;54.43;101391.88;2108051;28;20028;-61
2022/03/11 03:56:45;;;;;;;;;;;;;;;4.09;53.58;101394.41;2108156;28;19915;-61
2022/03/11 03:57:45;;;;;;;;;;;;;;;4.16;53.64;101392.63;2108091;28;19977;-60
2022/03/11 03:58:45;;;;;;;;;;;;;;;4.20;53.71;101396.91;2108053;28;19953;-61
2022/03/11 03:59:45;;;;;;;;;;;;;;;4.16;53.93;101390.06;2108074;28;19951;-61
2022/03/11 04:00:46;;;;;;;;;;;;;;;4.06;53.91;101384.97;2108060;28;19939;-61
2022/03/11 04:01:46;;;;;;;;;;;;;;;4.17;53.31;101391.78;2108006;28;19940;-61
2022/03/11 04:02:46;;;;;;;;;;;;;;;4.14;53.77;101392.66;2108016;28;19947;-63
2022/03/11 04:03:46;;;;;;;;;;;;;;;4.21;53.24;101393.50;2107977;28;19954;-62
2022/03/11 04:04:46;;;;;;;;;;;;;;;4.23;53.41;101390.03;2108037;28;19908;-62
2022/03/11 04:05:46;;;;;;;;;;;;;;;4.19;53.46;101379.72;2107953;28;20345;-62
2022/03/11 04:06:47;;;;;;;;;;;;;;;4.12;53.21;101384.94;2107334;28;19908;-61
2022/03/11 04:07:47;;;;;;;;;;;;;;;4.17;53.59;101378.88;2107424;28;20357;-61
2022/03/11 04:08:47;;;;;;;;;;;;;;;4.14;53.81;101387.47;2107289;28;19927;-61
2022/03/11 04:09:47;;;;;;;;;;;;;;;4.12;53.37;101384.94;2107422;28;19908;-61
2022/03/11 04:10:47;;;;;;;;;;;;;;;4.19;53.69;101380.56;2107918;28;19961;-61
2022/03/11 04:11:48;;;;;;;;;;;;;;;4.21;53.10;101383.16;2107847;28;19915;-60
2022/03/11 04:12:48;;;;;;;;;;;;;;;4.19;53.29;101379.72;2107211;28;19908;-60
2022/03/11 04:13:49;;;;;;;;;;;;;;;4.19;53.19;101384.88;2098848;28;20389;-61
2022/03/11 04:14:49;;;;;;;;;;;;;;;4.18;53.54;101388.34;2107195;28;19908;-61
2022/03/11 04:15:49;;;;;;;;;;;;;;;4.22;53.25;101385.72;2107871;28;19908;-60
2022/03/11 04:16:50;;;;;;;;;;;;;;;4.18;53.53;101385.75;2107879;28;19912;-60
2022/03/11 04:17:50;;;;;;;;;;;;;;;4.19;53.38;101379.72;2107773;28;20262;-61
2022/03/11 04:18:50;;;;;;;;;;;;;;;4.15;53.50;101383.19;2107734;28;19914;-60
2022/03/11 04:19:50;;;;;;;;;;;;;;;4.11;53.41;101378.03;2107810;28;20369;-61
2022/03/11 04:20:51;;;;;;;;;;;;;;;4.10;53.59;101394.41;2107798;28;20286;-62
2022/03/11 04:21:51;;;;;;;;;;;;;;;4.19;53.03;101390.03;2107775;28;19912;-62
2022/03/11 04:22:54;;;;;;;;;;;;;;;4.25;52.49;101379.69;2107842;28;19912;-61
2022/03/11 04:23:54;;;;;;;;;;;;;;;4.31;52.62;101378.78;2107783;28;19908;-60
2022/03/11 04:24:54;;;;;;;;;;;;;;;4.26;52.79;101378.81;2107776;28;19908;-59
2022/03/11 04:25:54;;;;;;;;;;;;;;;4.16;53.26;101383.19;2107702;28;19946;-60
2022/03/11 04:26:54;;;;;;;;;;;;;;;4.15;53.16;101378.88;2107725;28;20349;-60
2022/03/11 04:27:55;;;;;;;;;;;;;;;4.12;53.39;101379.78;2107772;28;19961;-61
2022/03/11 04:28:55;;;;;;;;;;;;;;;4.25;52.58;101379.69;2107819;28;20357;-60
2022/03/11 04:29:55;;;;;;;;;;;;;;;4.27;52.35;101371.91;2107826;28;19951;-59
2022/03/11 04:30:55;;;;;;;;;;;;;;;4.32;52.41;101373.59;2107875;28;19908;-60
2022/03/11 04:31:55;;;;;;;;;;;;;;;4.33;52.14;101377.88;2107459;28;19908;-61
2022/03/11 04:32:55;;;;;;;;;;;;;;;4.33;52.79;101369.28;2107750;28;19908;-60
2022/03/11 04:33:57;;;;;;;;;;;;;;;4.22;52.77;101366.78;2107726;28;20357;-60
2022/03/11 04:34:57;;;;;;;;;;;;;;;4.22;52.68;101364.19;2107641;28;19908;-60
2022/03/11 04:35:58;;;;;;;;;;;;;;;4.21;52.72;101365.06;2106977;28;20308;-60
2022/03/11 04:36:58;;;;;;;;;;;;;;;4.26;52.86;101365.88;2106998;28;19908;-61
2022/03/11 04:37:58;;;;;;;;;;;;;;;4.22;53.20;101369.34;2107645;28;19973;-60
2022/03/11 04:39:00;;;;;;;;;;;;;;;4.23;52.39;101365.91;2107587;28;20007;-62
2022/03/11 04:40:00;;;;;;;;;;;;;;;4.45;51.94;101365.75;2106968;28;20273;-61
2022/03/11 04:41:01;;;;;;;;;;;;;;;4.47;51.66;101363.97;2107091;28;19950;-60
2022/03/11 04:42:01;;;;;;;;;;;;;;;4.40;52.66;101357.16;2107600;28;19915;-61
2022/03/11 04:43:02;;;;;;;;;;;;;;;4.36;52.13;101362.38;2107600;28;20285;-62
2022/03/11 04:44:03;;;;;;;;;;;;;;;4.54;51.42;101363.06;2107617;28;20434;-61
2022/03/11 04:45:03;;;;;;;;;;;;;;;4.52;51.47;101357.06;2106832;28;19908;-63
2022/03/11 04:46:03;;;;;;;;;;;;;;;4.58;51.15;101357.00;2107111;28;19908;-60
2022/03/11 04:47:04;;;;;;;;;;;;;;;4.62;51.04;101356.09;2106895;28;19907;-62
2022/03/11 04:48:04;;;;;;;;;;;;;;;4.58;51.77;101356.16;2106950;28;19908;-60